Terminal Aerodrome Forecast
Issued by NWS

Home | Current Version | Previous Version | Text Only | Print | Product List | Glossary On
Versions: 1 2 3 4 5 6 7 8 9 10 11 12 13 14 15 16
000
FTUS42 KRAH 212340
TAFRWI
TAF
KRWI 212340Z 2200/2224 VRB04KT P6SM OVC040
     FM220300 00000KT P6SM VCSH OVC040
     FM220500 00000KT P6SM VCSH OVC025
     FM220600 00000KT P6SM OVC025
      TEMPO 2206/2209 4SM -SHRA OVC015
     FM220900 00000KT P6SM OVC003
     FM221300 VRB04KT P6SM BKN040
     FM221500 33008KT P6SM FEW070=

USA.gov is the U.S. government's official web portal to all federal, state and local government web resources and services.